Time;durP1;ratioP1;P1;durP2;ratioP2;P2;SDS_P1;SDS_P2;PMS_P1;PMS_P2;Temp;Humidity;BMP_temperature;BMP_pressure;BME280_temperature;BME280_humidity;BME280_pressure;Samples;Min_cycle;Max_cycle;Signal;HPM_P1;HPM_P2
2021/07/09 00:03:17;;;;;;;17.47;13.50;;;19.50;97.30;;;;;;5104476;22;20509;-93
2021/07/09 00:17:57;;;;;;;19.03;13.30;;;19.30;97.30;;;;;;5205414;22;20515;-92
2021/07/09 00:24:13;;;;;;;20.03;14.20;;;19.30;97.30;;;;;;5035555;22;20487;-93
2021/07/09 00:26:44;;;;;;;19.13;13.97;;;19.30;97.30;;;;;;4940218;29;20451;-93
2021/07/09 00:29:41;;;;;;;21.13;12.30;;;19.30;97.30;;;;;;4957133;28;20540;-93
2021/07/09 00:42:48;;;;;;;27.37;13.23;;;19.30;97.30;;;;;;5541025;22;20490;-93
2021/07/09 00:45:15;;;;;;;25.60;13.70;;;19.30;97.30;;;;;;5018327;28;20458;-93
2021/07/09 00:51:30;;;;;;;27.00;15.10;;;19.30;97.30;;;;;;5007848;22;20494;-86
2021/07/09 00:53:59;;;;;;;24.37;15.10;;;19.20;97.30;;;;;;5019224;28;20673;-88
2021/07/09 00:56:25;;;;;;;20.43;13.90;;;19.20;97.30;;;;;;5016153;28;20461;-88
2021/07/09 00:58:52;;;;;;;24.00;14.57;;;19.20;97.30;;;;;;5033534;28;20960;-87
2021/07/09 01:01:18;;;;;;;20.37;13.63;;;19.20;97.30;;;;;;5033046;28;20434;-88
2021/07/09 01:03:44;;;;;;;19.77;12.10;;;19.20;97.30;;;;;;5015285;28;20404;-87
2021/07/09 01:06:11;;;;;;;19.40;13.33;;;19.20;97.30;;;;;;5014837;28;20635;-88
2021/07/09 01:08:36;;;;;;;20.13;13.57;;;19.20;97.30;;;;;;5014194;28;20459;-87
2021/07/09 01:11:02;;;;;;;19.67;13.20;;;19.20;97.30;;;;;;5015402;28;20474;-86
2021/07/09 01:13:27;;;;;;;18.83;11.60;;;19.10;97.30;;;;;;5015580;28;20619;-85
2021/07/09 01:15:53;;;;;;;23.57;13.00;;;19.10;97.30;;;;;;5033578;28;20172;-87
2021/07/09 01:18:18;;;;;;;23.93;12.70;;;19.10;97.30;;;;;;5015753;28;20231;-87
2021/07/09 01:20:44;;;;;;;14.87;9.70;;;19.00;97.30;;;;;;5015714;28;20204;-87
2021/07/09 01:23:10;;;;;;;25.40;13.47;;;18.90;97.30;;;;;;5015661;28;20626;-87
2021/07/09 01:25:36;;;;;;;17.00;12.80;;;18.90;97.30;;;;;;5015744;28;20284;-87
2021/07/09 01:28:08;;;;;;;22.93;12.90;;;18.90;97.30;;;;;;5015865;28;20550;-87
2021/07/09 01:30:35;;;;;;;14.67;9.60;;;18.90;97.30;;;;;;5016845;28;20200;-87
2021/07/09 01:33:04;;;;;;;26.23;13.17;;;18.80;97.30;;;;;;5017139;28;20415;-87
2021/07/09 01:35:29;;;;;;;20.10;10.50;;;18.80;97.30;;;;;;5016878;28;20422;-87
2021/07/09 01:37:57;;;;;;;23.30;12.53;;;18.80;97.30;;;;;;5017029;28;21019;-87
2021/07/09 01:40:24;;;;;;;19.63;11.40;;;18.80;97.30;;;;;;5016967;28;20753;-87
2021/07/09 01:42:50;;;;;;;17.43;11.60;;;18.80;97.30;;;;;;5017057;28;20771;-87
2021/07/09 01:45:17;;;;;;;14.70;11.30;;;18.70;97.30;;;;;;5016894;28;20918;-87
2021/07/09 01:47:43;;;;;;;15.53;10.93;;;18.70;97.30;;;;;;5033668;28;20446;-87
2021/07/09 01:50:09;;;;;;;17.00;11.20;;;18.70;97.30;;;;;;5032299;28;20443;-87
2021/07/09 01:52:35;;;;;;;21.67;11.43;;;18.80;97.30;;;;;;5032177;28;20689;-87
2021/07/09 01:55:01;;;;;;;24.27;12.73;;;18.80;97.30;;;;;;5032280;28;20183;-87
2021/07/09 01:57:27;;;;;;;18.90;11.27;;;18.90;97.30;;;;;;5014465;28;20188;-87
2021/07/09 01:59:55;;;;;;;19.47;11.27;;;18.90;97.30;;;;;;5014615;28;20477;-87
2021/07/09 02:02:21;;;;;;;17.17;10.77;;;18.90;97.30;;;;;;5014435;28;20191;-87
2021/07/09 02:04:57;;;;;;;16.90;10.10;;;19.00;97.30;;;;;;5014479;28;20836;-87
2021/07/09 02:07:24;;;;;;;21.00;12.10;;;19.10;97.30;;;;;;5014192;28;20200;-86
2021/07/09 02:09:54;;;;;;;19.27;13.57;;;19.10;97.30;;;;;;5013960;28;20419;-87
2021/07/09 02:12:22;;;;;;;14.70;11.07;;;19.10;97.30;;;;;;5014555;28;20406;-87
2021/07/09 02:14:49;;;;;;;18.90;9.70;;;19.00;97.30;;;;;;5014827;28;20921;-87
2021/07/09 02:17:16;;;;;;;15.70;11.60;;;19.00;97.30;;;;;;5014849;28;20423;-87
2021/07/09 02:19:43;;;;;;;21.30;12.10;;;18.90;97.30;;;;;;5018076;28;20423;-87
2021/07/09 02:22:13;;;;;;;14.53;9.67;;;18.90;97.30;;;;;;5036118;28;20578;-88
2021/07/09 02:24:39;;;;;;;19.20;12.93;;;18.90;97.30;;;;;;5036671;28;20869;-87
2021/07/09 02:27:06;;;;;;;15.13;10.30;;;18.90;97.30;;;;;;5018339;28;20454;-87
2021/07/09 02:29:33;;;;;;;17.37;9.87;;;18.90;97.30;;;;;;5037673;28;20483;-87
2021/07/09 02:32:00;;;;;;;17.57;10.27;;;19.00;97.30;;;;;;5019584;28;20449;-87
2021/07/09 02:34:29;;;;;;;22.40;11.23;;;19.00;97.30;;;;;;5019651;28;20415;-87
2021/07/09 02:36:55;;;;;;;22.43;11.33;;;19.00;97.30;;;;;;5020055;28;20427;-86
2021/07/09 02:39:21;;;;;;;15.90;10.13;;;19.00;97.30;;;;;;5019746;28;20929;-86
2021/07/09 02:41:47;;;;;;;12.10;8.70;;;19.00;97.30;;;;;;5037529;28;20493;-87
2021/07/09 02:44:12;;;;;;;14.50;11.50;;;19.00;97.30;;;;;;5020076;28;20411;-87
2021/07/09 02:46:38;;;;;;;14.80;11.07;;;19.00;97.30;;;;;;5036416;28;20636;-87
2021/07/09 02:49:04;;;;;;;18.73;10.87;;;19.00;97.30;;;;;;5018059;28;20180;-87
2021/07/09 02:51:29;;;;;;;22.07;12.17;;;18.90;97.30;;;;;;5034736;28;20617;-87
2021/07/09 02:53:55;;;;;;;17.50;12.20;;;18.90;97.30;;;;;;5035179;28;20165;-87
2021/07/09 02:56:20;;;;;;;19.63;13.50;;;18.90;97.30;;;;;;5035125;28;20168;-87
2021/07/09 02:58:48;;;;;;;31.10;13.73;;;18.80;97.30;;;;;;5017325;28;20192;-87
2021/07/09 03:01:14;;;;;;;29.80;13.30;;;18.80;97.30;;;;;;5017325;28;20191;-87
2021/07/09 03:03:39;;;;;;;22.40;12.97;;;18.70;97.30;;;;;;5017480;28;20417;-87
2021/07/09 03:06:05;;;;;;;15.50;9.87;;;18.70;97.30;;;;;;5017094;28;20701;-87
2021/07/09 03:08:30;;;;;;;22.53;12.53;;;18.70;97.30;;;;;;5016883;28;20247;-87
2021/07/09 03:10:56;;;;;;;20.07;12.03;;;18.70;97.30;;;;;;5017403;28;20193;-87
2021/07/09 03:13:24;;;;;;;20.33;12.60;;;18.70;97.30;;;;;;5017921;28;20184;-87
2021/07/09 03:15:49;;;;;;;22.67;12.07;;;18.70;97.30;;;;;;5017527;28;20173;-88
2021/07/09 03:18:14;;;;;;;14.73;12.07;;;18.70;97.30;;;;;;5017674;28;20492;-87
2021/07/09 03:20:40;;;;;;;18.40;13.80;;;18.60;97.30;;;;;;5017461;28;20196;-87
2021/07/09 03:23:06;;;;;;;15.90;11.47;;;18.60;97.30;;;;;;5017696;28;20656;-87
2021/07/09 03:25:32;;;;;;;21.87;12.97;;;18.60;97.30;;;;;;5017749;28;20722;-87
2021/07/09 03:27:57;;;;;;;23.10;12.70;;;18.60;97.30;;;;;;5036487;28;20482;-87
2021/07/09 03:30:23;;;;;;;16.97;12.40;;;18.50;97.30;;;;;;5017687;28;20802;-87
2021/07/09 03:32:48;;;;;;;13.93;8.53;;;18.50;97.30;;;;;;5036628;28;20307;-88
2021/07/09 03:35:14;;;;;;;19.27;12.10;;;18.50;97.30;;;;;;5018630;28;20668;-87
2021/07/09 03:37:40;;;;;;;22.63;10.93;;;18.50;97.30;;;;;;5018693;28;20230;-88
2021/07/09 03:40:08;;;;;;;20.00;9.27;;;18.50;97.30;;;;;;5036383;28;20835;-87
2021/07/09 03:42:33;;;;;;;13.17;9.57;;;18.60;97.30;;;;;;5036022;28;20169;-88
2021/07/09 03:44:59;;;;;;;21.17;11.27;;;18.60;97.30;;;;;;5017071;28;20419;-87
2021/07/09 03:47:24;;;;;;;15.33;10.47;;;18.60;97.30;;;;;;5016490;28;20200;-88
2021/07/09 03:49:50;;;;;;;12.90;10.67;;;18.60;97.30;;;;;;5034063;28;20635;-87
2021/07/09 03:52:15;;;;;;;19.00;10.50;;;18.60;97.30;;;;;;5016558;28;20255;-88
2021/07/09 03:54:41;;;;;;;28.07;11.20;;;18.60;97.30;;;;;;5016735;28;20172;-88
2021/07/09 03:57:07;;;;;;;18.90;11.80;;;18.50;97.30;;;;;;5016363;28;20176;-87
2021/07/09 03:59:32;;;;;;;17.73;10.63;;;18.40;97.30;;;;;;5015994;28;20181;-88
2021/07/09 04:01:58;;;;;;;20.80;12.93;;;18.40;97.30;;;;;;5016002;28;20222;-87
2021/07/09 04:04:23;;;;;;;19.80;12.70;;;18.30;97.30;;;;;;5016252;28;20176;-87
2021/07/09 04:06:49;;;;;;;16.10;9.50;;;18.30;97.30;;;;;;5016984;28;20234;-88
2021/07/09 04:09:14;;;;;;;19.23;11.33;;;18.30;97.30;;;;;;5016659;28;20254;-87
2021/07/09 04:11:46;;;;;;;19.20;11.63;;;18.30;97.30;;;;;;5040080;23;20239;-87
2021/07/09 04:14:34;;;;;;;24.70;12.10;;;18.40;97.30;;;;;;5016262;28;20193;-88
2021/07/09 04:17:00;;;;;;;14.60;10.03;;;18.40;97.30;;;;;;5016965;28;20954;-88
2021/07/09 04:19:25;;;;;;;18.20;11.30;;;18.30;97.30;;;;;;5016844;28;20407;-88
2021/07/09 04:22:00;;;;;;;18.70;11.73;;;18.40;97.30;;;;;;5034979;28;20748;-88
2021/07/09 04:27:38;;;;;;;18.97;10.70;;;18.40;97.30;;;;;;5007578;28;20501;-88
2021/07/09 04:30:06;;;;;;;18.30;11.40;;;18.30;97.30;;;;;;5017892;28;20423;-88
2021/07/09 04:32:34;;;;;;;16.43;10.20;;;18.30;97.30;;;;;;5018123;28;20434;-88
2021/07/09 04:35:06;;;;;;;15.20;10.77;;;18.30;97.30;;;;;;5017854;28;20980;-87
2021/07/09 04:37:32;;;;;;;17.07;11.20;;;18.20;97.30;;;;;;5017717;28;20917;-88
2021/07/09 04:39:57;;;;;;;17.87;10.73;;;18.20;97.30;;;;;;5016800;28;20418;-87
2021/07/09 04:42:23;;;;;;;15.63;10.83;;;18.10;97.30;;;;;;5016141;28;20180;-88
2021/07/09 04:44:48;;;;;;;15.10;11.47;;;18.00;97.30;;;;;;5015554;28;20183;-88
2021/07/09 04:47:14;;;;;;;18.47;10.30;;;18.00;97.30;;;;;;5015171;28;20547;-87
2021/07/09 04:49:42;;;;;;;14.27;10.07;;;18.00;97.30;;;;;;5015274;28;20165;-87
2021/07/09 04:52:08;;;;;;;13.30;10.10;;;18.00;97.30;;;;;;5015315;28;20193;-88
2021/07/09 04:54:33;;;;;;;19.70;10.37;;;18.00;97.30;;;;;;5015766;28;20564;-88
2021/07/09 04:56:59;;;;;;;16.90;10.47;;;18.00;97.30;;;;;;5012818;28;20726;-87
2021/07/09 04:59:24;;;;;;;18.63;11.33;;;18.00;97.30;;;;;;4995764;28;20181;-88
2021/07/09 05:01:50;;;;;;;15.73;11.10;;;18.00;97.30;;;;;;4995916;28;20197;-88
2021/07/09 05:04:15;;;;;;;17.70;11.20;;;18.00;97.30;;;;;;4997349;28;20536;-87
2021/07/09 05:06:41;;;;;;;15.97;11.47;;;18.00;97.30;;;;;;5008271;28;20190;-88
2021/07/09 05:10:20;;;;;;;15.57;10.63;;;18.00;97.30;;;;;;5016737;28;20639;-87
2021/07/09 05:12:46;;;;;;;14.67;10.57;;;18.00;97.30;;;;;;4975832;28;20782;-85
2021/07/09 05:15:13;;;;;;;18.37;12.50;;;18.00;97.30;;;;;;5019251;28;20422;-85
2021/07/09 05:17:39;;;;;;;16.63;11.30;;;18.00;97.30;;;;;;5006414;28;20180;-86
2021/07/09 05:20:06;;;;;;;24.80;14.00;;;17.90;97.30;;;;;;5018903;28;20434;-86
2021/07/09 05:22:31;;;;;;;13.40;8.00;;;17.90;97.30;;;;;;5016136;28;20415;-86
2021/07/09 05:24:57;;;;;;;18.80;13.17;;;18.00;97.30;;;;;;5015787;28;20441;-86
2021/07/09 05:27:26;;;;;;;21.13;12.00;;;18.00;97.30;;;;;;5009468;28;20208;-87
2021/07/09 05:29:54;;;;;;;16.07;10.20;;;18.00;97.30;;;;;;5016233;28;20510;-87
2021/07/09 05:32:28;;;;;;;17.70;12.83;;;18.00;97.30;;;;;;5037652;28;20423;-87
2021/07/09 05:34:57;;;;;;;19.30;13.37;;;18.00;97.30;;;;;;5018923;28;20425;-87
2021/07/09 05:37:23;;;;;;;20.60;12.27;;;18.00;97.30;;;;;;5014679;28;20423;-87
2021/07/09 05:39:49;;;;;;;20.17;13.10;;;18.00;97.30;;;;;;5014958;28;20430;-88
2021/07/09 05:42:15;;;;;;;23.70;13.47;;;18.00;97.30;;;;;;5029258;28;20428;-88
2021/07/09 05:44:43;;;;;;;21.47;13.40;;;18.00;97.30;;;;;;4997340;28;20427;-86
2021/07/09 05:47:10;;;;;;;22.13;14.40;;;18.00;97.30;;;;;;5013365;28;20199;-87
2021/07/09 05:49:35;;;;;;;23.77;14.93;;;18.00;97.30;;;;;;5015151;28;20518;-88
2021/07/09 05:52:01;;;;;;;22.30;14.97;;;17.90;97.30;;;;;;5014019;28;20533;-88
2021/07/09 05:54:27;;;;;;;18.10;13.03;;;17.90;97.30;;;;;;5035139;28;20223;-87
2021/07/09 05:56:52;;;;;;;19.30;13.60;;;17.90;97.30;;;;;;5018243;28;20267;-88
2021/07/09 05:59:18;;;;;;;15.03;12.17;;;17.90;97.30;;;;;;5018554;28;20181;-87
2021/07/09 06:01:44;;;;;;;18.97;14.60;;;17.80;97.30;;;;;;5017453;28;20203;-87
2021/07/09 06:04:09;;;;;;;22.90;14.60;;;17.90;97.30;;;;;;5036921;28;20180;-88
2021/07/09 06:06:35;;;;;;;23.70;15.30;;;18.00;97.30;;;;;;5018888;28;20639;-88
2021/07/09 06:09:00;;;;;;;20.50;14.13;;;18.00;97.30;;;;;;5021607;28;20215;-88
2021/07/09 06:11:27;;;;;;;24.03;13.40;;;18.00;97.30;;;;;;5020441;28;20223;-88
2021/07/09 06:13:53;;;;;;;17.20;13.10;;;18.00;97.30;;;;;;5019513;28;20188;-87
2021/07/09 06:16:19;;;;;;;19.83;12.93;;;18.10;97.30;;;;;;5020067;28;20497;-88
2021/07/09 06:18:45;;;;;;;18.23;11.60;;;18.10;97.30;;;;;;5020958;28;20835;-86
2021/07/09 06:21:10;;;;;;;13.30;10.20;;;18.10;97.30;;;;;;5022113;28;20470;-87
2021/07/09 06:23:35;;;;;;;15.27;11.13;;;18.10;97.30;;;;;;5020414;28;20169;-88
2021/07/09 06:26:01;;;;;;;16.10;10.63;;;18.10;97.30;;;;;;5019748;28;20184;-88
2021/07/09 06:28:27;;;;;;;16.40;11.57;;;18.10;97.30;;;;;;5018713;28;20204;-88
2021/07/09 06:30:52;;;;;;;12.57;10.17;;;18.10;97.30;;;;;;5019607;28;20204;-88
2021/07/09 06:33:18;;;;;;;13.63;10.07;;;18.10;97.30;;;;;;5018226;28;20228;-88
2021/07/09 06:35:43;;;;;;;12.83;9.30;;;18.00;97.30;;;;;;4997844;28;20664;-87
2021/07/09 06:38:09;;;;;;;13.20;10.10;;;18.10;97.30;;;;;;5006891;28;20183;-88
2021/07/09 06:40:34;;;;;;;15.50;10.60;;;18.10;97.30;;;;;;5015693;28;20201;-88
2021/07/09 06:43:00;;;;;;;12.97;10.77;;;18.10;97.30;;;;;;5017840;28;20175;-88
2021/07/09 06:45:26;;;;;;;23.17;11.20;;;18.10;97.30;;;;;;5017768;28;20176;-87
2021/07/09 06:47:53;;;;;;;23.23;13.00;;;18.00;97.30;;;;;;5017413;28;20204;-87
2021/07/09 06:50:19;;;;;;;21.17;13.70;;;18.00;97.30;;;;;;5017487;28;20693;-87
2021/07/09 06:52:45;;;;;;;17.50;13.27;;;18.00;97.30;;;;;;5020546;28;20424;-90
2021/07/09 06:55:12;;;;;;;20.20;13.07;;;18.00;97.30;;;;;;5019039;28;20826;-88
2021/07/09 06:57:38;;;;;;;19.33;15.07;;;18.00;97.30;;;;;;5019275;28;20234;-89
2021/07/09 07:00:06;;;;;;;19.77;14.03;;;18.00;97.30;;;;;;5036380;28;20472;-87
2021/07/09 07:02:32;;;;;;;24.23;16.40;;;18.00;97.30;;;;;;5018192;28;20455;-88
2021/07/09 07:04:59;;;;;;;19.60;15.57;;;18.10;97.30;;;;;;5018817;28;21136;-88
2021/07/09 07:07:24;;;;;;;22.80;16.10;;;18.00;97.30;;;;;;5018895;28;20814;-87
2021/07/09 07:09:50;;;;;;;18.00;14.23;;;18.00;97.30;;;;;;5018238;28;20489;-87
2021/07/09 07:12:15;;;;;;;23.43;15.13;;;18.00;97.30;;;;;;5018699;28;20286;-87
2021/07/09 07:14:41;;;;;;;20.70;14.10;;;18.00;97.30;;;;;;5010771;28;20628;-89
2021/07/09 07:17:08;;;;;;;18.87;14.53;;;18.10;97.30;;;;;;5017506;28;20182;-89
2021/07/09 07:19:34;;;;;;;20.50;14.40;;;18.10;97.30;;;;;;4999093;28;20193;-88
2021/07/09 07:22:02;;;;;;;20.73;14.23;;;18.10;97.30;;;;;;5011835;28;20435;-90
2021/07/09 07:24:28;;;;;;;15.20;12.00;;;18.10;97.30;;;;;;5019201;28;20180;-89
2021/07/09 07:26:54;;;;;;;14.83;10.60;;;18.00;97.30;;;;;;5013765;28;20423;-89
2021/07/09 07:29:19;;;;;;;14.27;12.07;;;18.00;97.30;;;;;;5020482;28;20936;-89
2021/07/09 07:31:45;;;;;;;18.10;13.83;;;18.00;97.30;;;;;;5020055;28;20196;-89
2021/07/09 07:34:10;;;;;;;16.70;13.30;;;17.90;97.30;;;;;;5034585;28;20537;-89
2021/07/09 07:36:36;;;;;;;17.20;13.60;;;17.90;97.30;;;;;;5017250;28;20635;-90
2021/07/09 07:39:02;;;;;;;14.10;12.90;;;17.90;97.30;;;;;;5034331;28;20188;-90
2021/07/09 07:41:27;;;;;;;16.20;12.40;;;17.90;97.30;;;;;;5017009;28;20690;-89
2021/07/09 07:43:53;;;;;;;13.43;10.50;;;17.80;97.30;;;;;;5033746;28;20423;-90
2021/07/09 07:46:18;;;;;;;18.27;11.37;;;17.80;97.30;;;;;;5017337;28;20772;-89
2021/07/09 07:48:44;;;;;;;13.30;10.37;;;17.80;97.30;;;;;;5016369;28;20208;-90
2021/07/09 07:51:09;;;;;;;11.40;9.80;;;17.80;97.30;;;;;;5016672;28;20192;-90
2021/07/09 07:53:36;;;;;;;10.80;8.60;;;17.80;97.30;;;;;;5017163;28;20176;-89
2021/07/09 07:56:03;;;;;;;12.13;9.20;;;17.80;97.30;;;;;;5017717;28;20195;-90
2021/07/09 07:58:29;;;;;;;10.20;8.30;;;17.80;97.30;;;;;;5017201;28;20455;-90
2021/07/09 08:00:54;;;;;;;7.97;6.50;;;17.70;97.30;;;;;;5017439;28;20949;-90
2021/07/09 08:03:20;;;;;;;8.67;7.20;;;17.70;97.30;;;;;;5035422;28;20185;-90
2021/07/09 08:05:45;;;;;;;9.60;7.67;;;17.80;97.30;;;;;;5017964;28;20390;-90
2021/07/09 08:08:11;;;;;;;9.63;7.87;;;17.80;97.30;;;;;;5016582;28;20204;-89
2021/07/09 08:10:36;;;;;;;11.30;8.20;;;17.80;97.30;;;;;;5004878;28;20232;-90
2021/07/09 08:13:02;;;;;;;11.00;7.10;;;17.80;97.30;;;;;;4998496;28;20712;-90
2021/07/09 08:15:35;;;;;;;6.20;5.73;;;17.80;97.30;;;;;;4998249;28;20236;-89
2021/07/09 08:18:01;;;;;;;6.00;5.47;;;17.80;97.30;;;;;;4998799;28;20260;-89
2021/07/09 08:20:28;;;;;;;6.57;5.20;;;17.80;97.30;;;;;;5000468;28;20449;-90
2021/07/09 08:23:01;;;;;;;6.67;5.10;;;17.80;97.30;;;;;;5000087;28;20181;-90
2021/07/09 08:25:27;;;;;;;6.73;5.17;;;17.80;97.30;;;;;;4999025;28;20491;-92
2021/07/09 08:27:52;;;;;;;6.50;5.23;;;17.80;97.30;;;;;;5014819;28;20450;-90
2021/07/09 08:30:20;;;;;;;7.20;6.07;;;17.80;97.30;;;;;;5017210;28;20465;-92
2021/07/09 08:32:46;;;;;;;8.33;6.10;;;17.90;97.30;;;;;;5016607;28;20231;-90
2021/07/09 08:35:14;;;;;;;6.03;5.60;;;17.80;97.30;;;;;;5015261;28;20415;-91
2021/07/09 08:37:42;;;;;;;7.87;6.80;;;17.80;97.30;;;;;;5016289;28;20655;-91
2021/07/09 08:40:09;;;;;;;8.53;6.17;;;17.80;97.30;;;;;;5016444;28;20443;-90
2021/07/09 08:42:39;;;;;;;6.63;5.90;;;17.80;97.30;;;;;;5014872;28;20786;-89
2021/07/09 08:45:10;;;;;;;5.97;5.53;;;17.90;97.30;;;;;;5011836;28;20466;-90
2021/07/09 08:47:36;;;;;;;12.30;5.73;;;17.90;97.30;;;;;;4999304;28;21065;-90
2021/07/09 08:50:05;;;;;;;6.97;5.40;;;17.90;97.30;;;;;;5012728;28;20491;-90
2021/07/09 08:52:35;;;;;;;9.27;6.00;;;17.90;97.30;;;;;;5014771;28;20173;-91
2021/07/09 08:55:02;;;;;;;9.43;7.40;;;18.00;97.30;;;;;;4995576;28;20412;-91
2021/07/09 08:57:30;;;;;;;8.73;7.47;;;18.00;97.30;;;;;;4995821;28;20578;-89
2021/07/09 08:59:56;;;;;;;8.10;6.97;;;18.10;97.30;;;;;;5013657;28;20977;-90
2021/07/09 09:02:26;;;;;;;8.33;6.10;;;18.10;97.30;;;;;;4997362;28;20428;-89
2021/07/09 09:04:52;;;;;;;7.13;6.23;;;18.10;97.30;;;;;;4997582;28;20270;-90
2021/07/09 09:07:23;;;;;;;6.57;6.13;;;18.10;97.30;;;;;;4997374;28;20938;-90
2021/07/09 09:09:56;;;;;;;8.43;6.80;;;18.10;97.30;;;;;;5015695;28;20411;-90
2021/07/09 09:12:22;;;;;;;8.33;6.20;;;18.10;97.30;;;;;;5018032;28;20419;-90
2021/07/09 09:14:52;;;;;;;7.97;5.60;;;18.10;97.30;;;;;;5009361;28;20435;-90
2021/07/09 09:17:37;;;;;;;5.67;5.40;;;18.10;97.30;;;;;;4998221;28;20544;-90
2021/07/09 09:20:07;;;;;;;5.70;5.30;;;18.10;97.30;;;;;;4998641;28;20410;-90
2021/07/09 09:22:39;;;;;;;7.20;5.80;;;18.10;97.30;;;;;;4999086;28;20447;-90
2021/07/09 09:25:06;;;;;;;12.00;5.67;;;18.10;97.30;;;;;;4998286;28;20412;-91
2021/07/09 09:27:34;;;;;;;6.00;4.90;;;18.20;97.30;;;;;;4997596;28;20464;-90
2021/07/09 09:30:13;;;;;;;7.47;5.63;;;18.10;97.30;;;;;;5025296;28;20415;-90
2021/07/09 09:32:50;;;;;;;7.03;5.70;;;18.10;97.30;;;;;;5016454;28;20503;-90
2021/07/09 09:35:34;;;;;;;7.27;6.27;;;18.20;97.30;;;;;;5014085;28;20914;-90
2021/07/09 09:38:04;;;;;;;11.23;6.73;;;18.20;97.30;;;;;;5015100;28;20423;-89
2021/07/09 09:40:34;;;;;;;7.10;6.23;;;18.10;97.30;;;;;;5004988;28;20966;-89
2021/07/09 09:43:07;;;;;;;7.67;6.03;;;18.10;97.30;;;;;;5012249;28;20415;-90
2021/07/09 09:45:33;;;;;;;4.73;4.50;;;18.00;97.30;;;;;;5018477;28;20486;-91
2021/07/09 09:48:21;;;;;;;7.60;4.87;;;18.00;97.30;;;;;;5020220;28;20456;-91
2021/07/09 09:50:49;;;;;;;7.27;5.60;;;18.00;97.30;;;;;;5013621;28;20438;-89
2021/07/09 09:53:16;;;;;;;5.60;4.83;;;18.00;97.30;;;;;;5016523;28;20412;-90
2021/07/09 09:55:43;;;;;;;17.40;5.43;;;18.00;97.30;;;;;;5015062;28;20407;-90
2021/07/09 09:58:18;;;;;;;6.27;5.87;;;18.00;97.30;;;;;;5015635;28;20407;-90
2021/07/09 10:00:49;;;;;;;10.17;5.70;;;17.90;97.30;;;;;;5015874;28;20545;-90
2021/07/09 10:03:15;;;;;;;7.30;5.60;;;17.90;97.30;;;;;;5016126;28;20517;-90
2021/07/09 10:05:49;;;;;;;5.73;5.07;;;18.00;97.30;;;;;;5016109;28;20445;-91
2021/07/09 10:08:17;;;;;;;6.97;5.30;;;18.00;97.30;;;;;;5015600;28;20516;-90
2021/07/09 10:10:44;;;;;;;7.30;5.57;;;17.90;97.30;;;;;;5015893;28;20474;-91
2021/07/09 10:13:13;;;;;;;6.07;5.20;;;17.90;97.30;;;;;;5007251;28;20417;-90
2021/07/09 10:15:43;;;;;;;8.23;4.60;;;17.90;97.30;;;;;;4997319;28;20419;-90
2021/07/09 10:18:14;;;;;;;5.40;4.60;;;17.80;97.30;;;;;;4997478;28;20432;-90
2021/07/09 10:20:45;;;;;;;4.53;4.17;;;17.80;97.30;;;;;;5016833;28;20456;-90
2021/07/09 10:23:13;;;;;;;5.00;4.60;;;17.70;97.30;;;;;;4997915;28;20802;-91
2021/07/09 10:25:39;;;;;;;6.37;4.13;;;17.80;97.30;;;;;;5015817;28;20427;-90
2021/07/09 10:28:11;;;;;;;4.70;4.40;;;17.80;97.30;;;;;;5016166;28;20462;-89
2021/07/09 10:30:43;;;;;;;5.00;4.03;;;17.80;97.30;;;;;;4997117;28;20750;-90
2021/07/09 10:33:33;;;;;;;4.90;4.60;;;17.80;97.30;;;;;;5005424;28;20458;-90
2021/07/09 10:36:04;;;;;;;5.57;3.77;;;17.80;97.30;;;;;;5002059;28;20419;-90
2021/07/09 10:38:41;;;;;;;5.60;4.77;;;17.80;97.30;;;;;;5015171;28;20976;-88
2021/07/09 10:41:18;;;;;;;4.30;4.03;;;17.80;97.30;;;;;;5018385;28;20497;-90
2021/07/09 10:44:09;;;;;;;5.87;4.67;;;17.80;97.30;;;;;;5006836;28;20478;-90
2021/07/09 10:46:35;;;;;;;4.80;4.50;;;17.80;97.30;;;;;;4996305;28;20923;-90
2021/07/09 10:49:00;;;;;;;4.83;4.03;;;17.80;97.30;;;;;;4999323;28;20546;-90
2021/07/09 10:51:53;;;;;;;4.00;3.80;;;17.80;97.30;;;;;;5002117;28;20204;-90
2021/07/09 10:54:26;;;;;;;3.90;3.70;;;17.80;97.30;;;;;;5041587;28;20709;-89
2021/07/09 10:57:21;;;;;;;7.30;4.17;;;17.90;97.30;;;;;;5019357;28;20953;-90
2021/07/09 11:00:24;;;;;;;6.00;3.93;;;17.90;97.30;;;;;;5020107;28;20446;-92
2021/07/09 11:03:05;;;;;;;3.47;3.27;;;17.90;97.30;;;;;;5020594;28;20415;-87
2021/07/09 11:05:43;;;;;;;3.60;3.40;;;17.90;97.30;;;;;;5017099;28;20427;-89
2021/07/09 11:08:33;;;;;;;2.53;2.33;;;17.90;97.30;;;;;;4999226;28;20952;-88
2021/07/09 11:11:16;;;;;;;2.73;2.50;;;17.90;97.30;;;;;;4999359;28;20464;-90
2021/07/09 11:13:49;;;;;;;3.47;3.30;;;17.90;97.30;;;;;;5000115;28;20436;-90
2021/07/09 11:22:19;;;;;;;4.20;3.70;;;17.90;97.30;;;;;;5044817;22;20909;-87
2021/07/09 11:24:55;;;;;;;3.33;3.13;;;17.90;97.30;;;;;;5000663;28;20507;-87
2021/07/09 11:27:24;;;;;;;4.37;4.07;;;17.80;97.30;;;;;;5007827;28;20288;-86
2021/07/09 11:29:50;;;;;;;8.17;4.40;;;17.90;97.30;;;;;;5009063;28;20411;-86
2021/07/09 11:32:21;;;;;;;4.73;3.77;;;17.90;97.30;;;;;;5022505;28;20818;-86
2021/07/09 11:34:55;;;;;;;6.50;3.80;;;17.90;97.30;;;;;;5027730;28;20180;-86
2021/07/09 11:37:26;;;;;;;3.33;3.13;;;17.90;97.30;;;;;;5031730;28;20415;-85
2021/07/09 11:40:00;;;;;;;4.50;3.50;;;17.90;97.30;;;;;;5021587;28;20500;-84
2021/07/09 11:42:30;;;;;;;4.30;3.63;;;17.90;97.30;;;;;;5016706;28;20809;-84
2021/07/09 11:45:05;;;;;;;2.80;2.60;;;17.80;97.30;;;;;;4996748;28;20780;-87
2021/07/09 11:47:35;;;;;;;4.90;2.53;;;17.70;97.30;;;;;;5000241;28;20457;-86
2021/07/09 11:50:06;;;;;;;2.60;2.40;;;17.70;97.30;;;;;;4996176;28;20504;-86
2021/07/09 11:52:35;;;;;;;3.77;3.57;;;17.70;97.30;;;;;;4980589;28;20429;-85
2021/07/09 11:55:06;;;;;;;3.53;3.33;;;17.70;97.30;;;;;;4996843;28;20438;-86
2021/07/09 11:57:35;;;;;;;2.97;2.77;;;17.70;97.30;;;;;;4979483;28;20413;-86
2021/07/09 12:00:03;;;;;;;4.10;3.10;;;17.70;97.30;;;;;;4978742;28;20413;-86
2021/07/09 12:02:30;;;;;;;4.53;2.97;;;17.70;97.30;;;;;;5025788;28;20443;-86
2021/07/09 12:04:58;;;;;;;4.20;3.07;;;17.70;97.30;;;;;;5003044;28;20816;-83
2021/07/09 12:07:27;;;;;;;2.80;2.47;;;17.70;97.30;;;;;;4996627;28;20972;-83
2021/07/09 12:13:15;;;;;;;3.67;3.50;;;17.60;97.30;;;;;;5004576;28;20440;-86
2021/07/09 12:15:41;;;;;;;3.17;2.70;;;17.70;97.30;;;;;;5004311;28;20419;-85
2021/07/09 12:18:08;;;;;;;4.87;4.23;;;17.70;97.30;;;;;;4995004;28;20240;-86
2021/07/09 12:20:39;;;;;;;4.07;3.90;;;17.70;97.30;;;;;;5010779;28;20231;-85
2021/07/09 12:23:07;;;;;;;4.33;4.10;;;17.80;97.30;;;;;;5000634;28;20563;-85
2021/07/09 12:25:34;;;;;;;3.70;3.37;;;17.80;97.30;;;;;;5007845;28;20425;-85
2021/07/09 12:28:01;;;;;;;3.67;2.70;;;17.70;97.30;;;;;;4999258;28;20483;-83
2021/07/09 12:30:29;;;;;;;3.80;2.83;;;17.60;97.30;;;;;;5009132;28;20431;-84
2021/07/09 12:33:01;;;;;;;5.00;3.30;;;17.50;97.30;;;;;;5013291;28;20918;-85
2021/07/09 12:35:36;;;;;;;3.57;3.37;;;17.50;97.30;;;;;;5008674;28;20485;-84
2021/07/09 12:38:07;;;;;;;6.60;4.43;;;17.40;97.30;;;;;;4992074;28;20432;-83
2021/07/09 12:40:44;;;;;;;4.60;2.77;;;17.40;97.30;;;;;;4999457;28;20435;-85
2021/07/09 12:43:18;;;;;;;3.40;3.20;;;17.40;97.30;;;;;;4995821;28;20451;-87
2021/07/09 12:46:01;;;;;;;5.50;3.67;;;17.40;97.30;;;;;;5014812;28;20487;-87
2021/07/09 12:48:43;;;;;;;4.13;3.03;;;17.40;97.30;;;;;;5005515;28;20545;-86
2021/07/09 12:51:17;;;;;;;4.60;3.47;;;17.40;97.30;;;;;;5015079;28;20435;-85
2021/07/09 12:54:00;;;;;;;4.40;3.60;;;17.30;97.30;;;;;;4995775;28;20511;-84
2021/07/09 12:56:31;;;;;;;5.73;3.50;;;17.30;97.30;;;;;;4983326;28;20486;-83
2021/07/09 12:59:03;;;;;;;4.50;3.70;;;17.30;97.30;;;;;;4994304;28;20503;-83
2021/07/09 13:01:30;;;;;;;7.57;3.47;;;17.30;97.30;;;;;;5001768;28;20516;-84
2021/07/09 13:03:55;;;;;;;4.30;3.17;;;17.20;97.30;;;;;;4995089;28;20446;-84
2021/07/09 13:06:31;;;;;;;6.20;3.57;;;17.20;97.30;;;;;;5011111;28;20427;-83
2021/07/09 13:09:12;;;;;;;3.70;3.07;;;17.20;97.30;;;;;;5011354;28;20214;-83
2021/07/09 13:11:40;;;;;;;5.50;3.70;;;17.20;97.30;;;;;;4997046;28;20444;-83
2021/07/09 13:14:08;;;;;;;3.23;3.10;;;17.20;97.30;;;;;;4997362;28;20829;-84
2021/07/09 13:16:51;;;;;;;4.00;3.13;;;17.20;97.30;;;;;;4985712;28;20956;-83
2021/07/09 13:19:35;;;;;;;3.10;2.97;;;17.20;97.30;;;;;;4977120;28;20444;-84
2021/07/09 13:22:05;;;;;;;6.60;3.87;;;17.20;97.30;;;;;;4977853;28;20543;-86
2021/07/09 13:24:37;;;;;;;10.83;4.00;;;17.20;97.30;;;;;;4984651;28;20483;-84
2021/07/09 13:27:24;;;;;;;4.13;3.63;;;17.10;97.30;;;;;;4988843;28;20429;-82
2021/07/09 13:30:00;;;;;;;9.17;4.80;;;17.00;97.30;;;;;;4985160;28;21006;-84